createdAt,value
2024-03-11T00:02:02.353Z,9.23
2024-03-11T00:04:30.004Z,9.27
2024-03-11T00:06:58.799Z,9.28
2024-03-11T00:09:34.136Z,9.28
2024-03-11T00:12:01.681Z,9.25
2024-03-11T00:14:31.838Z,9.23
2024-03-11T00:16:59.076Z,9.27
2024-03-11T00:19:27.150Z,9.22
2024-03-11T00:21:58.260Z,9.17
2024-03-11T00:24:25.490Z,9.10
2024-03-11T00:26:53.283Z,9.03
2024-03-11T00:29:20.678Z,8.96
2024-03-11T00:31:47.350Z,8.78
2024-03-11T00:34:18.234Z,8.77
2024-03-11T00:36:49.276Z,8.65
2024-03-11T00:39:19.006Z,8.57
2024-03-11T00:41:45.468Z,8.46
2024-03-11T00:44:12.072Z,8.44
2024-03-11T00:46:39.657Z,8.43
2024-03-11T00:49:09.624Z,8.42
2024-03-11T00:51:36.435Z,8.46
2024-03-11T00:54:03.059Z,8.48
2024-03-11T00:56:29.599Z,8.50
2024-03-11T00:58:56.183Z,8.50
2024-03-11T01:01:22.732Z,8.48
2024-03-11T01:03:49.309Z,8.38
2024-03-11T01:06:16.931Z,8.37
2024-03-11T01:08:43.582Z,8.44
2024-03-11T01:11:11.995Z,8.40
2024-03-11T01:13:38.658Z,8.32
2024-03-11T01:16:06.778Z,8.38
2024-03-11T01:18:33.329Z,8.51
2024-03-11T01:21:01.237Z,8.58
2024-03-11T01:23:29.870Z,8.50
2024-03-11T01:25:56.455Z,8.51
2024-03-11T01:28:22.989Z,8.50
2024-03-11T01:30:49.914Z,8.57
2024-03-11T01:33:16.744Z,8.60
2024-03-11T01:35:44.481Z,8.61
2024-03-11T01:38:11.559Z,8.51
2024-03-11T01:40:38.256Z,8.48
2024-03-11T01:43:05.167Z,8.40
2024-03-11T01:45:34.111Z,8.33
2024-03-11T01:48:01.704Z,8.33
2024-03-11T01:50:29.804Z,8.38
2024-03-11T01:52:58.211Z,8.44
2024-03-11T01:55:28.979Z,8.55
2024-03-11T01:57:58.137Z,8.55
2024-03-11T02:00:25.021Z,8.61
2024-03-11T02:02:56.117Z,8.62
2024-03-11T02:05:25.913Z,8.64
2024-03-11T02:07:57.995Z,8.72
2024-03-11T02:10:25.914Z,8.76
2024-03-11T02:12:52.717Z,8.65
2024-03-11T02:15:19.544Z,8.67
2024-03-11T02:17:47.659Z,8.74
2024-03-11T02:20:19.644Z,8.83
2024-03-11T02:22:54.417Z,8.94
2024-03-11T02:25:29.494Z,9.04
2024-03-11T02:27:58.438Z,9.09
2024-03-11T02:30:25.492Z,9.06
2024-03-11T02:32:52.135Z,8.86
2024-03-11T02:35:18.887Z,8.67
2024-03-11T02:37:47.882Z,8.58
2024-03-11T02:40:18.321Z,8.47
2024-03-11T02:42:45.521Z,8.49
2024-03-11T02:45:16.942Z,8.29
2024-03-11T02:47:44.380Z,8.13
2024-03-11T02:50:11.691Z,8.33
2024-03-11T02:52:38.688Z,8.45
2024-03-11T02:55:07.012Z,8.35
2024-03-11T02:57:34.648Z,8.41
2024-03-11T03:00:01.995Z,8.62
2024-03-11T03:02:29.041Z,8.77
2024-03-11T03:04:57.301Z,8.44
2024-03-11T03:07:27.705Z,8.70
2024-03-11T03:09:54.752Z,8.67
2024-03-11T03:12:21.837Z,8.78
2024-03-11T03:14:48.792Z,8.72
2024-03-11T03:17:15.608Z,8.65
2024-03-11T03:19:42.172Z,8.91
2024-03-11T03:22:09.053Z,8.97
2024-03-11T03:24:35.672Z,9.01
2024-03-11T03:27:02.222Z,8.89
2024-03-11T03:29:28.815Z,8.92
2024-03-11T03:31:55.426Z,8.90
2024-03-11T03:34:21.955Z,8.96
2024-03-11T03:36:48.516Z,9.15
2024-03-11T03:39:15.115Z,9.05
2024-03-11T03:41:41.684Z,9.18
2024-03-11T03:44:08.320Z,9.29
2024-03-11T03:46:34.995Z,9.36
2024-03-11T03:49:02.527Z,9.38
2024-03-11T03:51:29.317Z,9.36
2024-03-11T03:53:58.206Z,9.50
2024-03-11T03:56:26.833Z,9.69
2024-03-11T03:58:54.330Z,9.72
2024-03-11T04:01:21.167Z,9.65
2024-03-11T04:03:47.750Z,9.77
2024-03-11T04:06:15.035Z,9.71
2024-03-11T04:08:42.052Z,9.64
2024-03-11T04:11:08.764Z,9.49
2024-03-11T04:13:36.906Z,9.48
2024-03-11T04:16:05.885Z,9.59
2024-03-11T04:18:32.552Z,9.67
2024-03-11T04:20:59.155Z,9.75
2024-03-11T04:23:27.523Z,9.79
2024-03-11T04:25:54.220Z,9.86
2024-03-11T04:28:20.823Z,9.83
2024-03-11T04:30:47.395Z,9.99
2024-03-11T04:33:18.188Z,10.14
2024-03-11T04:35:45.554Z,9.96
2024-03-11T04:38:13.694Z,9.86
2024-03-11T04:40:42.643Z,9.96
2024-03-11T04:43:09.530Z,9.84
2024-03-11T04:45:38.511Z,9.92
2024-03-11T04:48:11.340Z,9.96
2024-03-11T04:50:42.963Z,9.98
2024-03-11T04:53:10.828Z,9.84
2024-03-11T04:55:40.486Z,9.91
2024-03-11T04:58:07.073Z,9.99
2024-03-11T05:00:34.087Z,9.92
2024-03-11T05:03:02.600Z,9.94
2024-03-11T05:05:37.289Z,9.93
2024-03-11T05:08:05.307Z,9.89
2024-03-11T05:10:32.295Z,9.96
2024-03-11T05:12:59.559Z,9.88
2024-03-11T05:15:29.549Z,9.69
2024-03-11T05:17:56.874Z,9.38
2024-03-11T05:20:23.726Z,9.26
2024-03-11T05:22:50.993Z,9.19
2024-03-11T05:25:20.722Z,9.21
2024-03-11T05:27:48.529Z,9.19
2024-03-11T05:30:17.047Z,8.88
2024-03-11T05:32:44.154Z,8.89
2024-03-11T05:35:11.360Z,8.77
2024-03-11T05:37:37.954Z,8.74
2024-03-11T05:40:07.474Z,8.74
2024-03-11T05:42:35.240Z,8.68
2024-03-11T05:45:02.610Z,8.63
2024-03-11T05:47:29.256Z,8.69
2024-03-11T05:49:56.195Z,8.74
2024-03-11T05:52:26.183Z,8.79
2024-03-11T05:54:53.891Z,8.69
2024-03-11T05:57:26.333Z,8.74
2024-03-11T05:59:53.937Z,8.73
2024-03-11T06:02:21.722Z,8.78
2024-03-11T06:04:48.750Z,8.75
2024-03-11T06:07:25.129Z,8.58
2024-03-11T06:09:52.675Z,8.68
2024-03-11T06:12:22.924Z,8.66
2024-03-11T06:14:50.790Z,8.70
2024-03-11T06:17:18.095Z,8.67
2024-03-11T06:19:45.847Z,8.72
2024-03-11T06:22:13.257Z,8.83
2024-03-11T06:24:40.174Z,8.95
2024-03-11T06:27:07.326Z,8.98
2024-03-11T06:29:34.274Z,8.95
2024-03-11T06:32:00.888Z,9.10
2024-03-11T06:34:28.784Z,9.17
2024-03-11T06:36:56.340Z,9.22
2024-03-11T06:39:22.996Z,9.21
2024-03-11T06:41:49.788Z,9.32
2024-03-11T06:44:21.288Z,9.75
2024-03-11T06:46:58.465Z,10.16
2024-03-11T06:49:26.655Z,9.56
2024-03-11T06:51:53.158Z,9.92
2024-03-11T06:54:19.732Z,9.93
2024-03-11T06:56:46.248Z,9.73
2024-03-11T06:59:12.928Z,10.08
2024-03-11T07:01:40.242Z,9.87
2024-03-11T07:04:06.965Z,10.20
2024-03-11T07:06:33.893Z,10.13
2024-03-11T07:09:02.509Z,10.19
2024-03-11T07:11:29.101Z,10.31
2024-03-11T07:13:55.710Z,11.16
2024-03-11T07:16:23.937Z,11.09
2024-03-11T07:18:54.512Z,11.70
2024-03-11T07:21:21.180Z,11.96
2024-03-11T07:23:49.451Z,12.08
2024-03-11T07:26:16.097Z,13.18
2024-03-11T07:28:42.683Z,14.31
2024-03-11T07:31:10.485Z,13.92
2024-03-11T07:33:37.580Z,13.28
2024-03-11T07:36:04.548Z,12.53
2024-03-11T07:38:31.195Z,12.46
2024-03-11T07:40:57.773Z,12.12
2024-03-11T07:43:24.355Z,12.56
2024-03-11T07:45:50.942Z,11.89
2024-03-11T07:48:17.697Z,12.99
2024-03-11T07:50:44.361Z,13.57
2024-03-11T07:53:13.477Z,13.45
2024-03-11T07:55:41.231Z,14.01
2024-03-11T07:58:08.284Z,13.59
2024-03-11T08:00:37.712Z,12.96
2024-03-11T08:03:05.225Z,12.82
2024-03-11T08:05:32.195Z,13.18
2024-03-11T08:07:59.649Z,12.85
2024-03-11T08:10:29.752Z,12.64
2024-03-11T08:12:56.781Z,12.37
2024-03-11T08:15:23.606Z,12.53
2024-03-11T08:17:52.145Z,12.54
2024-03-11T08:20:21.756Z,13.43
2024-03-11T08:22:53.802Z,13.38
2024-03-11T08:25:28.738Z,13.75
2024-03-11T08:27:56.045Z,14.47
2024-03-11T08:30:25.230Z,15.21
2024-03-11T08:32:51.880Z,14.73
2024-03-11T08:35:22.705Z,15.14
2024-03-11T08:37:51.025Z,14.80
2024-03-11T08:40:20.834Z,16.18
2024-03-11T08:42:54.005Z,16.11
2024-03-11T08:45:24.256Z,15.75
2024-03-11T08:47:52.504Z,15.28
2024-03-11T08:50:23.353Z,15.48
2024-03-11T08:52:50.807Z,16.95
2024-03-11T08:55:18.317Z,16.83
2024-03-11T08:57:50.750Z,17.61
2024-03-11T09:00:18.394Z,16.31
2024-03-11T09:02:48.478Z,17.58
2024-03-11T09:05:19.391Z,18.03
2024-03-11T09:07:47.527Z,15.98
2024-03-11T09:10:17.654Z,17.15
2024-03-11T09:12:46.006Z,17.40
2024-03-11T09:15:20.536Z,18.42
2024-03-11T09:17:51.209Z,18.40
2024-03-11T09:20:21.508Z,17.31
2024-03-11T09:22:49.433Z,17.69
2024-03-11T09:25:25.449Z,18.54
2024-03-11T09:27:55.028Z,19.58
2024-03-11T09:30:21.888Z,19.08
2024-03-11T09:32:50.838Z,19.89
2024-03-11T09:35:18.409Z,19.79
2024-03-11T09:37:52.625Z,17.68
2024-03-11T09:40:29.120Z,20.47
2024-03-11T09:42:57.498Z,22.31
2024-03-11T09:45:29.592Z,22.78
2024-03-11T09:47:58.151Z,24.11
2024-03-11T09:50:34.752Z,25.65
2024-03-11T09:53:13.937Z,23.93
2024-03-11T09:55:44.946Z,22.00
2024-03-11T09:58:14.381Z,20.92
2024-03-11T10:00:53.872Z,24.09
2024-03-11T10:03:23.473Z,24.84
2024-03-11T10:06:02.288Z,21.24
2024-03-11T10:08:32.470Z,22.92
2024-03-11T10:11:22.523Z,22.48
2024-03-11T10:13:53.647Z,23.80
2024-03-11T10:16:28.985Z,23.72
2024-03-11T10:19:04.550Z,22.33
2024-03-11T10:21:35.744Z,21.64
2024-03-11T10:24:03.150Z,22.29
2024-03-11T10:26:43.500Z,20.08
2024-03-11T10:29:12.840Z,17.12
2024-03-11T10:31:42.703Z,17.71
2024-03-11T10:34:21.776Z,18.43
2024-03-11T10:36:56.751Z,20.48
2024-03-11T10:39:23.434Z,23.73
2024-03-11T10:41:51.894Z,23.73
2024-03-11T10:44:30.571Z,25.98
2024-03-11T10:47:15.466Z,27.66
2024-03-11T10:49:46.851Z,27.84
2024-03-11T10:52:17.043Z,27.61
2024-03-11T10:54:58.219Z,27.91
2024-03-11T10:57:40.360Z,25.32
2024-03-11T11:00:18.069Z,26.82
2024-03-11T11:02:50.867Z,26.99
2024-03-11T11:05:25.239Z,29.43
2024-03-11T11:07:57.101Z,25.47
2024-03-11T11:10:30.912Z,26.71
2024-03-11T11:12:57.902Z,24.54
2024-03-11T11:15:25.279Z,22.96
2024-03-11T11:17:55.735Z,23.19
2024-03-11T11:20:39.079Z,21.52
2024-03-11T11:23:06.322Z,19.77
2024-03-11T11:25:40.772Z,24.93
2024-03-11T11:28:08.508Z,21.16
2024-03-11T11:30:37.804Z,24.56
2024-03-11T11:33:05.224Z,25.60
2024-03-11T11:35:37.195Z,23.31
2024-03-11T11:38:39.525Z,27.15
2024-03-11T11:41:38.508Z,22.32
2024-03-11T11:44:05.226Z,24.64
2024-03-11T11:46:44.777Z,28.66
2024-03-11T11:49:22.565Z,24.76
2024-03-11T11:51:52.772Z,25.39
2024-03-11T11:54:34.527Z,29.12
2024-03-11T11:57:03.437Z,27.05
2024-03-11T11:59:30.677Z,26.76
2024-03-11T12:02:01.306Z,26.59
2024-03-11T12:04:30.706Z,29.17
2024-03-11T12:06:58.174Z,27.14
2024-03-11T12:09:25.265Z,28.52
2024-03-11T12:11:58.354Z,27.46
2024-03-11T12:14:24.951Z,29.00
2024-03-11T12:17:03.692Z,28.35
2024-03-11T12:19:31.512Z,25.09
2024-03-11T12:21:59.647Z,22.21
2024-03-11T12:24:27.244Z,21.80
2024-03-11T12:26:57.184Z,27.34
2024-03-11T12:29:24.181Z,29.05
2024-03-11T12:31:57.240Z,28.10
2024-03-11T12:34:25.622Z,29.14
2024-03-11T12:36:53.672Z,28.55
2024-03-11T12:39:43.927Z,28.20
2024-03-11T12:42:10.687Z,28.89
2024-03-11T12:44:38.029Z,29.83
2024-03-11T12:47:06.230Z,23.81
2024-03-11T12:49:33.231Z,20.62
2024-03-11T12:52:05.207Z,26.35
2024-03-11T12:54:32.162Z,28.49
2024-03-11T12:57:18.134Z,30.12
2024-03-11T12:59:58.845Z,28.05
2024-03-11T13:02:25.482Z,26.53
2024-03-11T13:04:54.528Z,28.71
2024-03-11T13:07:24.463Z,30.43
2024-03-11T13:09:58.155Z,29.57
2024-03-11T13:12:30.253Z,27.02
2024-03-11T13:14:57.480Z,31.30
2024-03-11T13:17:24.266Z,29.61
2024-03-11T13:19:57.374Z,28.78
2024-03-11T13:22:23.987Z,27.50
2024-03-11T13:24:57.502Z,27.39
2024-03-11T13:27:26.266Z,29.56
2024-03-11T13:29:52.830Z,29.55
2024-03-11T13:32:21.582Z,29.65
2024-03-11T13:34:49.955Z,29.18
2024-03-11T13:37:17.255Z,28.76
2024-03-11T13:39:45.338Z,28.61
2024-03-11T13:42:13.823Z,24.39
2024-03-11T13:44:42.139Z,25.03
2024-03-11T13:47:10.298Z,25.14
2024-03-11T13:49:41.267Z,27.72
2024-03-11T13:52:10.285Z,26.30
2024-03-11T13:54:39.202Z,24.29
2024-03-11T13:57:08.335Z,27.91
2024-03-11T13:59:35.267Z,27.80
2024-03-11T14:02:01.954Z,28.27
2024-03-11T14:04:29.228Z,28.63
2024-03-11T14:06:55.884Z,28.54
2024-03-11T14:09:24.768Z,26.72
2024-03-11T14:11:53.433Z,24.96
2024-03-11T14:14:20.094Z,25.58
2024-03-11T14:16:48.444Z,26.50
2024-03-11T14:19:17.543Z,27.00
2024-03-11T14:21:45.272Z,26.62
2024-03-11T14:24:14.958Z,25.59
2024-03-11T14:26:43.980Z,26.49
2024-03-11T14:29:16.995Z,26.35
2024-03-11T14:31:47.900Z,26.21
2024-03-11T14:34:15.646Z,26.19
2024-03-11T14:36:44.982Z,25.65
2024-03-11T14:39:21.182Z,24.67
2024-03-11T14:41:48.871Z,24.32
2024-03-11T14:44:16.204Z,25.46
2024-03-11T14:46:52.888Z,25.70
2024-03-11T14:49:25.655Z,25.45
2024-03-11T14:51:55.022Z,22.77
2024-03-11T14:54:30.920Z,22.90
2024-03-11T14:56:57.968Z,22.82
2024-03-11T14:59:28.371Z,23.18
2024-03-11T15:01:55.580Z,24.13
2024-03-11T15:04:26.384Z,23.81
2024-03-11T15:06:53.511Z,23.30
2024-03-11T15:09:20.598Z,23.47
2024-03-11T15:11:48.914Z,23.01
2024-03-11T15:14:21.459Z,20.19
2024-03-11T15:16:49.979Z,19.82
2024-03-11T15:19:16.646Z,19.63
2024-03-11T15:21:44.919Z,20.02
2024-03-11T15:24:11.849Z,20.04
2024-03-11T15:26:38.488Z,19.16
2024-03-11T15:29:09.212Z,19.45
2024-03-11T15:31:36.385Z,19.10
2024-03-11T15:34:04.575Z,18.30
2024-03-11T15:36:34.217Z,17.50
2024-03-11T15:39:00.882Z,16.94
2024-03-11T15:41:27.792Z,16.56
2024-03-11T15:43:56.588Z,15.88
2024-03-11T15:46:24.438Z,15.40
2024-03-11T15:48:53.116Z,15.19
2024-03-11T15:51:21.705Z,15.15
2024-03-11T15:53:51.505Z,14.85
2024-03-11T15:56:20.178Z,14.66
2024-03-11T15:58:47.423Z,14.48
2024-03-11T16:01:23.417Z,14.28
2024-03-11T16:03:52.342Z,14.40
2024-03-11T16:06:19.339Z,14.18
2024-03-11T16:08:47.323Z,14.17
2024-03-11T16:11:14.591Z,13.92
2024-03-11T16:13:41.620Z,13.89
2024-03-11T16:16:09.600Z,13.78
2024-03-11T16:18:37.195Z,13.73
2024-03-11T16:21:03.938Z,13.63
2024-03-11T16:23:32.048Z,13.55
2024-03-11T16:26:02.669Z,13.50
2024-03-11T16:28:30.425Z,13.40
2024-03-11T16:30:57.174Z,13.37
2024-03-11T16:33:25.820Z,13.30
2024-03-11T16:35:52.361Z,13.21
2024-03-11T16:38:19.573Z,13.10
2024-03-11T16:40:47.070Z,13.05
2024-03-11T16:43:17.317Z,12.99
2024-03-11T16:45:44.608Z,12.92
2024-03-11T16:48:12.753Z,12.83
2024-03-11T16:50:46.432Z,12.82
2024-03-11T16:53:13.726Z,12.75
2024-03-11T16:55:42.467Z,12.65
2024-03-11T16:58:12.597Z,12.57
2024-03-11T17:00:43.913Z,12.48
2024-03-11T17:03:10.908Z,12.42
2024-03-11T17:05:39.717Z,12.41
2024-03-11T17:08:09.636Z,12.38
2024-03-11T17:10:37.059Z,12.33
2024-03-11T17:13:08.165Z,12.28
2024-03-11T17:15:36.562Z,12.24
2024-03-11T17:18:04.403Z,12.20
2024-03-11T17:20:43.302Z,12.16
2024-03-11T17:23:14.263Z,12.12
2024-03-11T17:25:40.865Z,12.03
2024-03-11T17:28:11.972Z,11.94
2024-03-11T17:30:42.174Z,11.89
2024-03-11T17:33:10.178Z,11.87
2024-03-11T17:35:41.495Z,11.70
2024-03-11T17:38:10.162Z,11.70
2024-03-11T17:40:38.269Z,11.64
2024-03-11T17:43:11.060Z,11.56
2024-03-11T17:45:40.568Z,11.42
2024-03-11T17:48:09.082Z,11.35
2024-03-11T17:50:36.729Z,11.12
2024-03-11T17:53:03.431Z,11.21
2024-03-11T17:55:38.015Z,11.21
2024-03-11T17:58:05.906Z,11.19
2024-03-11T18:00:34.356Z,11.17
2024-03-11T18:03:08.378Z,11.01
2024-03-11T18:05:36.465Z,10.83
2024-03-11T18:08:10.598Z,10.85
2024-03-11T18:10:41.871Z,10.87
2024-03-11T18:13:12.921Z,10.74
2024-03-11T18:15:41.653Z,10.61
2024-03-11T18:18:11.229Z,10.63
2024-03-11T18:20:41.381Z,10.61
2024-03-11T18:23:13.453Z,10.69
2024-03-11T18:25:40.500Z,10.67
2024-03-11T18:28:09.170Z,10.63
2024-03-11T18:30:39.198Z,10.59
2024-03-11T18:33:08.026Z,10.57
2024-03-11T18:35:36.500Z,10.45
2024-03-11T18:38:07.583Z,10.38
2024-03-11T18:40:35.024Z,10.24
2024-03-11T18:43:02.286Z,10.12
2024-03-11T18:45:30.743Z,10.13
2024-03-11T18:47:57.553Z,10.14
2024-03-11T18:50:25.519Z,10.13
2024-03-11T18:52:59.758Z,10.14
2024-03-11T18:55:31.067Z,10.19
2024-03-11T18:57:59.089Z,10.08
2024-03-11T19:00:30.638Z,10.06
2024-03-11T19:02:58.114Z,10.09
2024-03-11T19:05:25.789Z,10.07
2024-03-11T19:07:52.420Z,10.09
2024-03-11T19:10:19.057Z,9.93
2024-03-11T19:12:48.530Z,9.89
2024-03-11T19:15:16.162Z,9.94
2024-03-11T19:17:46.864Z,9.99
2024-03-11T19:20:16.723Z,9.93
2024-03-11T19:22:46.580Z,9.87
2024-03-11T19:25:19.389Z,9.92
2024-03-11T19:27:47.017Z,9.86
2024-03-11T19:30:16.325Z,9.73
2024-03-11T19:32:43.495Z,9.49
2024-03-11T19:35:15.527Z,9.52
2024-03-11T19:38:35.822Z,9.47
2024-03-11T19:41:23.813Z,9.38
2024-03-11T19:44:16.312Z,9.25
2024-03-11T19:47:07.985Z,9.27
2024-03-11T19:50:13.368Z,9.08
2024-03-11T19:53:18.520Z,9.17
2024-03-11T19:56:17.949Z,9.23
2024-03-11T19:59:23.312Z,9.20
2024-03-11T20:02:02.335Z,9.13
2024-03-11T20:05:17.187Z,9.07
2024-03-11T20:08:07.604Z,9.06
2024-03-11T20:10:58.917Z,9.04
2024-03-11T20:14:13.325Z,8.81
2024-03-11T20:16:53.724Z,8.60
2024-03-11T20:19:42.173Z,8.78
2024-03-11T20:22:40.041Z,8.91
2024-03-11T20:25:25.518Z,8.73
2024-03-11T20:28:07.592Z,8.35
2024-03-11T20:31:07.493Z,8.32
2024-03-11T20:33:34.866Z,8.44
2024-03-11T20:36:02.970Z,8.58
2024-03-11T20:38:29.879Z,8.61
2024-03-11T20:40:56.811Z,8.71
2024-03-11T20:43:24.204Z,8.74
2024-03-11T20:45:52.894Z,8.65
2024-03-11T20:48:20.041Z,8.60
2024-03-11T20:50:47.236Z,8.69
2024-03-11T20:53:18.234Z,8.68
2024-03-11T20:55:44.835Z,8.68
2024-03-11T20:58:12.438Z,8.68
2024-03-11T21:00:39.371Z,8.65
2024-03-11T21:03:06.625Z,8.61
2024-03-11T21:05:36.478Z,8.52
2024-03-11T21:08:03.730Z,8.54
2024-03-11T21:10:31.203Z,8.48
2024-03-11T21:12:58.459Z,8.44
2024-03-11T21:15:27.793Z,8.44
2024-03-11T21:17:55.173Z,8.38
2024-03-11T21:20:22.179Z,8.42
2024-03-11T21:22:53.912Z,8.48
2024-03-11T21:25:24.399Z,8.54
2024-03-11T21:27:55.331Z,8.53
2024-03-11T21:30:23.389Z,8.36
2024-03-11T21:32:51.279Z,8.30
2024-03-11T21:35:18.968Z,8.37
2024-03-11T21:37:46.353Z,8.38
2024-03-11T21:40:15.487Z,8.43
2024-03-11T21:42:50.538Z,8.35
2024-03-11T21:45:20.213Z,8.37
2024-03-11T21:47:46.929Z,8.33
2024-03-11T21:50:13.975Z,8.35
2024-03-11T21:52:40.798Z,8.32
2024-03-11T21:55:12.077Z,8.22
2024-03-11T21:57:40.467Z,8.22
2024-03-11T22:00:08.224Z,8.23
2024-03-11T22:02:35.675Z,8.12
2024-03-11T22:05:02.227Z,8.26
2024-03-11T22:07:33.084Z,8.26
2024-03-11T22:09:59.733Z,8.30
2024-03-11T22:12:26.477Z,8.21
2024-03-11T22:14:53.156Z,8.22
2024-03-11T22:17:19.839Z,8.13
2024-03-11T22:19:46.504Z,8.21
2024-03-11T22:22:13.219Z,8.13
2024-03-11T22:24:42.483Z,8.08
2024-03-11T22:27:09.112Z,7.97
2024-03-11T22:29:35.660Z,8.14
2024-03-11T22:32:02.246Z,8.13
2024-03-11T22:34:29.024Z,8.12
2024-03-11T22:36:55.980Z,8.12
2024-03-11T22:39:24.286Z,8.08
2024-03-11T22:41:51.435Z,8.09
2024-03-11T22:44:18.291Z,8.06
2024-03-11T22:46:45.147Z,8.04
2024-03-11T22:49:14.331Z,8.07
2024-03-11T22:51:43.947Z,8.07
2024-03-11T22:54:10.845Z,8.09
2024-03-11T22:56:38.443Z,8.06
2024-03-11T22:59:05.716Z,7.98
2024-03-11T23:01:34.857Z,7.97
2024-03-11T23:04:05.953Z,7.91
2024-03-11T23:06:33.805Z,7.85
2024-03-11T23:09:00.922Z,7.92
2024-03-11T23:11:27.818Z,7.88
2024-03-11T23:13:54.588Z,7.90
2024-03-11T23:16:22.016Z,7.88
2024-03-11T23:18:51.193Z,7.85
2024-03-11T23:21:18.546Z,7.77
2024-03-11T23:23:46.893Z,7.83
2024-03-11T23:26:14.471Z,7.81
2024-03-11T23:28:41.254Z,7.82
2024-03-11T23:31:10.382Z,7.71
2024-03-11T23:33:37.316Z,7.62
2024-03-11T23:36:04.165Z,7.48
2024-03-11T23:38:33.388Z,7.46
2024-03-11T23:41:00.273Z,7.15
2024-03-11T23:43:27.030Z,7.30
2024-03-11T23:45:55.171Z,7.44
2024-03-11T23:48:26.335Z,7.47
2024-03-11T23:50:56.619Z,7.48
2024-03-11T23:53:25.466Z,7.53
2024-03-11T23:56:01.901Z,7.45
2024-03-11T23:58:33.546Z,7.53
